Time;durP1;ratioP1;P1;durP2;ratioP2;P2;SDS_P1;SDS_P2;PMS_P1;PMS_P2;Temp;Humidity;BMP_temperature;BMP_pressure;BME280_temperature;BME280_humidity;BME280_pressure;Samples;Min_cycle;Max_cycle;Signal;HPM_P1;HPM_P2
2021/11/08 00:01:51;;;;;;;71.40;37.92;;;;;;;11.00;100.00;100807.63;4996387;28;20118;-71
2021/11/08 00:04:16;;;;;;;;;;;;;;;11.03;100.00;100796.53;4994391;28;20040;-72
2021/11/08 00:06:42;;;;;;;76.50;37.20;;;;;;;11.01;100.00;100778.38;4994273;28;20008;-70
2021/11/08 00:09:08;;;;;;;70.50;39.85;;;;;;;11.19;100.00;100780.84;4994680;28;20120;-70
2021/11/08 00:11:34;;;;;;;66.03;37.20;;;;;;;11.21;100.00;100771.41;4993219;28;20038;-74
2021/11/08 00:14:00;;;;;;;64.20;36.95;;;;;;;11.32;100.00;100789.94;4997050;28;20581;-69
2021/11/08 00:21:36;;;;;;;57.63;33.53;;;;;;;11.06;100.00;100781.16;5017570;28;20530;-73
2021/11/08 00:24:03;;;;;;;55.83;33.90;;;;;;;11.05;100.00;100779.41;5008742;28;20029;-71
2021/11/08 00:26:28;;;;;;;63.08;33.13;;;;;;;11.04;100.00;100777.63;5018241;28;20042;-70
2021/11/08 00:28:54;;;;;;;57.35;33.22;;;;;;;11.06;100.00;100769.13;5014358;28;20037;-76
2021/11/08 00:31:20;;;;;;;56.90;34.60;;;;;;;11.10;100.00;100759.78;4991466;28;20044;-70
2021/11/08 00:33:46;;;;;;;60.10;33.40;;;;;;;11.18;100.00;100758.41;4992095;28;20041;-69
2021/11/08 00:36:12;;;;;;;62.90;34.80;;;;;;;11.05;100.00;100746.69;4992000;28;20038;-71
2021/11/08 00:38:37;;;;;;;60.33;34.13;;;;;;;11.10;100.00;100744.28;4991402;28;20511;-70
2021/11/08 00:41:03;;;;;;;58.17;34.58;;;;;;;10.91;100.00;100709.09;4991785;28;20034;-73
2021/11/08 00:43:29;;;;;;;59.78;33.90;;;;;;;10.85;100.00;100738.13;4991738;28;20038;-70
2021/11/08 00:45:56;;;;;;;64.45;36.35;;;;;;;10.81;100.00;100731.97;4989894;28;20413;-71
2021/11/08 00:48:24;;;;;;;64.65;37.03;;;;;;;10.86;100.00;100727.00;4984343;28;20475;-71
2021/11/08 00:50:51;;;;;;;73.10;38.00;;;;;;;10.98;100.00;100724.03;4975359;28;20532;-70
2021/11/08 00:53:17;;;;;;;67.05;39.05;;;;;;;11.11;100.00;100715.03;4976801;28;20047;-74
2021/11/08 00:55:44;;;;;;;70.65;38.95;;;;;;;11.14;100.00;100708.28;4974303;28;20178;-72
2021/11/08 00:58:18;;;;;;;62.92;37.05;;;;;;;11.16;100.00;100706.66;4972663;28;20027;-73
2021/11/08 01:00:43;;;;;;;61.55;36.33;;;;;;;11.07;100.00;100695.97;4972515;28;20049;-73
2021/11/08 01:03:11;;;;;;;61.13;35.03;;;;;;;11.03;100.00;100693.19;4990004;28;20030;-74
2021/11/08 01:05:36;;;;;;;64.15;36.63;;;;;;;10.88;100.00;100671.13;4992691;28;20504;-72
2021/11/08 01:08:02;;;;;;;68.35;36.25;;;;;;;10.46;100.00;100617.84;4997566;28;20054;-70
2021/11/08 01:10:28;;;;;;;68.03;37.55;;;;;;;10.40;100.00;100591.78;4995260;28;20033;-72
2021/11/08 01:12:54;;;;;;;68.10;36.60;;;;;;;10.91;100.00;100670.38;4997881;28;20017;-70
2021/11/08 01:15:20;;;;;;;67.88;37.05;;;;;;;10.89;100.00;100677.16;5022882;28;20018;-69
2021/11/08 01:17:46;;;;;;;64.22;36.58;;;;;;;10.86;100.00;100671.88;5022340;28;20036;-74
2021/11/08 01:20:12;;;;;;;71.55;34.95;;;;;;;10.54;100.00;100627.59;5016032;28;20030;-73
2021/11/08 01:22:38;;;;;;;66.93;35.70;;;;;;;10.65;100.00;100663.38;5028185;28;20029;-71
2021/11/08 01:25:06;;;;;;;71.82;38.33;;;;;;;10.61;100.00;100671.78;5018283;28;20656;-70
2021/11/08 01:27:45;;;;;;;71.60;36.55;;;;;;;10.39;100.00;100659.69;5027391;28;20041;-70
2021/11/08 01:30:25;;;;;;;63.08;36.47;;;;;;;10.08;100.00;100596.53;5032349;28;20488;-71
2021/11/08 01:33:05;;;;;;;72.20;39.55;;;;;;;10.48;100.00;100662.69;5014765;28;20108;-73
2021/11/08 01:35:45;;;;;;;75.85;38.92;;;;;;;10.44;100.00;100657.31;5015891;28;20032;-72
2021/11/08 01:38:22;;;;;;;;;;;;;;;10.39;100.00;100651.97;5014656;28;20109;-74
2021/11/08 01:40:48;;;;;;;65.93;36.22;;;;;;;10.32;100.00;100649.94;5015287;28;20011;-73
2021/11/08 01:43:14;;;;;;;72.00;37.50;;;;;;;9.71;100.00;100557.19;5012895;28;20144;-74
2021/11/08 01:45:41;;;;;;;69.20;38.40;;;;;;;10.28;100.00;100648.03;5015606;28;20033;-69
2021/11/08 01:48:07;;;;;;;64.90;37.92;;;;;;;10.09;100.00;100612.88;5032522;28;20037;-70
2021/11/08 01:50:34;;;;;;;66.55;38.35;;;;;;;9.81;100.00;100553.28;5031910;28;20511;-69
2021/11/08 01:53:01;;;;;;;87.00;36.65;;;;;;;10.26;100.00;100647.97;5014876;28;20026;-72
2021/11/08 01:55:27;;;;;;;80.18;37.08;;;;;;;10.29;100.00;100642.06;5013390;28;20480;-71
2021/11/08 01:57:54;;;;;;;83.18;36.47;;;;;;;10.02;100.00;100601.44;5013425;28;20021;-70
2021/11/08 02:00:21;;;;;;;49.28;32.78;;;;;;;10.23;100.00;100642.72;5014293;28;20491;-70
2021/11/08 02:02:48;;;;;;;55.10;35.65;;;;;;;10.02;100.00;100611.75;5015751;28;20030;-70
2021/11/08 02:05:13;;;;;;;51.88;33.90;;;;;;;10.21;100.00;100639.16;5013422;28;20018;-68
2021/11/08 02:07:40;;;;;;;50.38;34.25;;;;;;;9.96;100.00;100586.56;5014251;28;20033;-70
2021/11/08 02:10:08;;;;;;;50.83;33.92;;;;;;;10.31;100.00;100635.28;5012448;28;20443;-70
2021/11/08 02:12:35;;;;;;;51.92;32.65;;;;;;;10.32;100.00;100640.50;4971530;28;20117;-69
2021/11/08 02:15:03;;;;;;;48.80;31.90;;;;;;;10.40;100.00;100634.78;5000811;28;20034;-70
2021/11/08 02:17:29;;;;;;;45.15;32.30;;;;;;;10.47;100.00;100639.41;4973999;28;20039;-70
2021/11/08 02:19:56;;;;;;;49.28;32.58;;;;;;;10.45;100.00;100639.31;4990029;28;20038;-69
2021/11/08 02:22:22;;;;;;;50.85;33.92;;;;;;;10.46;100.00;100632.47;4989883;28;20027;-69
2021/11/08 02:24:48;;;;;;;45.55;31.50;;;;;;;10.40;100.00;100617.59;4989662;28;20034;-70
2021/11/08 02:27:19;;;;;;;103.72;33.55;;;;;;;10.54;100.00;100625.88;4999986;28;20055;-69
2021/11/08 02:29:46;;;;;;;145.43;33.63;;;;;;;10.55;100.00;100627.66;5005678;28;20050;-70
2021/11/08 02:32:12;;;;;;;103.18;34.65;;;;;;;10.47;100.00;100619.63;4993775;28;20106;-70
2021/11/08 02:34:38;;;;;;;88.85;34.38;;;;;;;10.59;100.00;100631.25;4984767;28;20042;-69
2021/11/08 02:37:04;;;;;;;58.97;30.85;;;;;;;10.49;100.00;100628.31;4987930;28;20752;-69
2021/11/08 02:39:50;;;;;;;51.28;32.55;;;;;;;10.38;100.00;100614.09;4979828;28;20042;-69
2021/11/08 02:42:15;;;;;;;47.15;31.83;;;;;;;10.55;100.00;100640.56;4991842;28;20030;-71
2021/11/08 02:44:41;;;;;;;52.60;32.45;;;;;;;10.64;100.00;100651.28;4990876;28;20046;-72
2021/11/08 02:47:06;;;;;;;51.38;31.80;;;;;;;10.68;100.00;100653.13;4991877;28;20186;-72
2021/11/08 02:49:35;;;;;;;49.58;31.88;;;;;;;10.65;100.00;100652.13;5003725;28;20041;-71
2021/11/08 02:52:05;;;;;;;54.63;32.15;;;;;;;10.60;100.00;100651.94;5022903;28;20121;-69
2021/11/08 02:54:35;;;;;;;46.47;32.13;;;;;;;10.60;100.00;100645.91;5022878;28;20045;-69
2021/11/08 02:57:01;;;;;;;52.03;33.05;;;;;;;10.07;100.00;100545.75;5030899;28;20021;-69
2021/11/08 02:59:29;;;;;;;48.22;33.05;;;;;;;10.36;100.00;100597.66;5030807;28;20041;-69
2021/11/08 03:01:55;;;;;;;72.88;40.97;;;;;;;10.49;100.00;100643.78;5031363;28;20031;-72
2021/11/08 03:04:27;;;;;;;159.23;33.90;;;;;;;10.30;100.00;100641.25;5030235;28;20027;-69
2021/11/08 03:06:52;;;;;;;52.83;32.72;;;;;;;10.35;100.00;100644.91;5030459;28;20108;-70
2021/11/08 03:09:23;;;;;;;59.45;34.10;;;;;;;10.44;100.00;100634.09;5012969;28;20124;-70
2021/11/08 03:11:49;;;;;;;49.90;34.67;;;;;;;10.32;100.00;100612.09;5031317;28;20091;-69
2021/11/08 03:14:18;;;;;;;49.72;33.47;;;;;;;10.52;100.00;100637.88;5030641;28;20075;-70
2021/11/08 03:16:56;;;;;;;48.35;32.88;;;;;;;10.61;100.00;100625.31;5030621;28;20030;-69
2021/11/08 03:21:56;;;;;;;98.78;35.10;;;;;;;10.56;100.00;100625.97;5027554;28;20033;-69
2021/11/08 03:24:40;;;;;;;127.18;34.92;;;;;;;10.58;100.00;100629.47;5018182;28;20128;-73
2021/11/08 03:29:49;;;;;;;91.50;35.15;;;;;;;10.13;100.00;100546.00;5014637;28;20047;-69
2021/11/08 03:32:17;;;;;;;204.98;36.25;;;;;;;10.60;100.00;100630.44;5012029;28;20017;-74
2021/11/08 03:34:50;;;;;;;98.55;33.13;;;;;;;10.24;100.00;100571.31;5011974;28;20025;-74
2021/11/08 03:37:16;;;;;;;99.45;32.28;;;;;;;10.55;100.00;100625.06;5013077;28;20029;-70
2021/11/08 03:39:41;;;;;;;108.07;32.63;;;;;;;10.44;100.00;100622.09;5012287;28;20133;-71
2021/11/08 03:42:07;;;;;;;128.20;33.40;;;;;;;10.26;100.00;100609.28;5013141;28;20096;-71
2021/11/08 03:44:33;;;;;;;94.57;31.25;;;;;;;10.26;100.00;100621.31;5020541;28;20045;-70
2021/11/08 03:46:59;;;;;;;155.95;33.70;;;;;;;10.01;100.00;100613.44;5026919;28;20021;-70
2021/11/08 03:49:25;;;;;;;102.32;31.90;;;;;;;9.92;100.00;100613.06;5011659;28;20041;-69
2021/11/08 03:51:51;;;;;;;164.45;32.15;;;;;;;9.94;100.00;100615.69;5023513;28;20021;-73
2021/11/08 03:54:17;;;;;;;227.93;33.92;;;;;;;9.86;100.00;100615.38;5030340;28;20013;-69
2021/11/08 03:56:42;;;;;;;149.10;37.28;;;;;;;9.29;100.00;100508.16;5030754;28;20595;-70
2021/11/08 03:59:08;;;;;;;170.23;37.65;;;;;;;10.01;100.00;100615.13;5022802;28;20022;-70
2021/11/08 04:01:36;;;;;;;233.57;36.42;;;;;;;9.95;100.00;100602.00;5018834;28;20029;-70
2021/11/08 04:04:04;;;;;;;245.95;37.75;;;;;;;10.09;100.00;100608.56;5030272;28;20083;-71
2021/11/08 04:06:31;;;;;;;401.98;41.00;;;;;;;10.25;100.00;100611.81;5030383;28;20024;-71
2021/11/08 04:08:58;;;;;;;105.00;32.47;;;;;;;10.19;100.00;100605.56;5030325;28;20026;-70
2021/11/08 04:11:24;;;;;;;232.48;36.25;;;;;;;9.75;100.00;100535.00;5020736;28;20025;-74
2021/11/08 04:13:50;;;;;;;183.25;31.48;;;;;;;9.99;100.00;100585.81;5030800;28;20494;-71
2021/11/08 04:16:18;;;;;;;109.72;32.22;;;;;;;10.08;100.00;100604.25;5031104;28;20028;-71
2021/11/08 04:18:50;;;;;;;305.75;35.33;;;;;;;9.53;100.00;100536.69;5034187;28;20018;-71
2021/11/08 04:21:16;;;;;;;392.38;37.53;;;;;;;9.97;100.00;100597.75;5033560;28;20087;-72
2021/11/08 04:23:42;;;;;;;93.88;29.08;;;;;;;9.80;100.00;100590.19;5033523;28;20431;-71
2021/11/08 04:26:08;;;;;;;262.85;34.40;;;;;;;9.83;100.00;100610.06;5033931;28;20492;-73
2021/11/08 04:28:35;;;;;;;224.00;36.15;;;;;;;9.74;100.00;100596.81;5034372;28;20056;-71
2021/11/08 04:31:00;;;;;;;138.00;36.78;;;;;;;9.85;100.00;100614.47;4998582;28;20048;-72
2021/11/08 04:41:41;;;;;;;127.65;32.90;;;;;;;9.75;100.00;100614.03;5033764;28;20036;-72
2021/11/08 04:44:40;;;;;;;108.68;33.30;;;;;;;9.75;100.00;100611.47;5032175;28;20031;-71
2021/11/08 04:52:15;;;;;;;88.88;29.20;;;;;;;9.74;100.00;100599.38;5033546;28;20033;-71
2021/11/08 05:24:37;;;;;;;103.22;38.25;;;;;;;10.07;100.00;100629.97;4952455;28;20129;-70
2021/11/08 05:32:18;;;;;;;134.85;40.30;;;;;;;10.25;100.00;100632.44;4948013;28;20101;-71
2021/11/08 05:34:44;;;;;;;114.18;39.28;;;;;;;10.05;100.00;100593.81;4952457;28;20144;-72
2021/11/08 05:37:09;;;;;;;127.57;40.85;;;;;;;10.29;100.00;100634.31;4952398;28;20534;-75
2021/11/08 05:39:37;;;;;;;121.93;39.22;;;;;;;10.28;100.00;100641.19;4952318;28;20039;-73
2021/11/08 05:42:04;;;;;;;86.93;38.92;;;;;;;10.18;100.00;100619.28;4974335;28;20077;-75
2021/11/08 05:44:30;;;;;;;137.60;39.45;;;;;;;10.27;100.00;100641.09;5032819;28;20033;-71
2021/11/08 05:46:55;;;;;;;101.65;37.00;;;;;;;9.79;100.00;100561.78;5032304;28;20032;-72
2021/11/08 05:49:21;;;;;;;91.90;36.60;;;;;;;10.31;100.00;100646.47;5032431;28;20406;-72
2021/11/08 05:51:47;;;;;;;83.95;32.03;;;;;;;10.24;100.00;100638.41;5031917;28;20385;-72
2021/11/08 05:54:12;;;;;;;86.18;32.67;;;;;;;10.24;100.00;100647.03;5032005;28;20121;-73
2021/11/08 05:57:08;;;;;;;103.25;33.75;;;;;;;10.25;100.00;100632.44;5030763;28;20017;-74
2021/11/08 06:51:22;;;;;;;139.13;45.33;;;;;;;10.78;100.00;100656.97;5028713;28;20037;-73
2021/11/08 06:53:50;;;;;;;124.75;45.90;;;;;;;10.41;100.00;100580.66;5029470;28;20557;-73
2021/11/08 06:56:23;;;;;;;138.20;43.35;;;;;;;10.45;100.00;100576.50;5028106;28;20041;-71
2021/11/08 06:58:50;;;;;;;147.25;42.45;;;;;;;10.99;100.00;100659.50;5026633;28;20052;-70
2021/11/08 07:01:16;;;;;;;130.40;43.13;;;;;;;10.97;100.00;100637.03;5032840;28;20026;-71
2021/11/08 07:03:41;;;;;;;128.43;42.65;;;;;;;11.10;100.00;100651.25;5013392;28;20029;-71
2021/11/08 07:06:07;;;;;;;118.75;41.63;;;;;;;11.13;100.00;100654.84;5032989;28;20026;-71
2021/11/08 07:08:33;;;;;;;126.57;45.05;;;;;;;11.14;100.00;100654.03;5030998;28;20026;-71
2021/11/08 07:10:58;;;;;;;130.48;46.22;;;;;;;11.15;100.00;100648.06;5030904;28;20080;-69
2021/11/08 07:13:24;;;;;;;135.77;47.58;;;;;;;11.10;100.00;100634.09;5031470;28;20468;-71
2021/11/08 07:15:51;;;;;;;133.18;46.80;;;;;;;11.13;100.00;100633.31;5015475;28;20513;-71
2021/11/08 07:18:17;;;;;;;134.38;44.60;;;;;;;11.13;100.00;100631.59;5030686;28;20442;-71
2021/11/08 07:20:44;;;;;;;158.80;48.90;;;;;;;10.30;100.00;100489.00;5030783;28;20118;-70
2021/11/08 07:23:09;;;;;;;156.80;49.90;;;;;;;11.17;100.00;100630.00;5030466;28;20083;-70
2021/11/08 07:25:35;;;;;;;161.63;51.40;;;;;;;11.21;100.00;100628.41;5030698;28;20463;-70
2021/11/08 07:28:21;;;;;;;168.63;49.63;;;;;;;11.10;100.00;100592.75;4987880;28;20227;-71
2021/11/08 07:30:47;;;;;;;178.70;51.33;;;;;;;11.28;100.00;100622.66;4987636;28;20137;-71
2021/11/08 07:33:16;;;;;;;176.55;52.15;;;;;;;10.78;100.00;100537.28;4994819;28;20449;-71
2021/11/08 07:35:43;;;;;;;172.50;48.73;;;;;;;11.17;100.00;100610.19;4993661;28;20121;-68
2021/11/08 07:38:09;;;;;;;154.75;47.88;;;;;;;11.21;100.00;100606.03;4990769;28;20296;-71
2021/11/08 07:40:35;;;;;;;176.18;52.22;;;;;;;11.13;100.00;100605.75;4988661;28;20473;-69
2021/11/08 07:43:00;;;;;;;212.50;71.55;;;;;;;11.20;100.00;100617.19;4988688;28;20034;-69
2021/11/08 07:45:27;;;;;;;148.55;52.95;;;;;;;11.22;100.00;100607.78;4988751;28;20038;-71
2021/11/08 07:47:53;;;;;;;159.82;50.38;;;;;;;11.11;100.00;100588.44;4988773;28;20609;-71
2021/11/08 07:50:19;;;;;;;166.45;52.63;;;;;;;11.08;100.00;100594.38;4988868;28;20049;-70
2021/11/08 07:52:45;;;;;;;151.80;48.92;;;;;;;11.04;100.00;100597.69;4991901;28;20038;-73
2021/11/08 07:55:10;;;;;;;191.13;56.13;;;;;;;10.99;100.00;100588.84;4995362;28;20477;-71
2021/11/08 07:57:38;;;;;;;162.20;52.00;;;;;;;10.97;100.00;100585.34;4995067;28;20031;-71
2021/11/08 08:00:05;;;;;;;182.75;56.33;;;;;;;11.22;100.00;100625.03;4993326;28;20579;-71
2021/11/08 08:02:31;;;;;;;187.68;56.42;;;;;;;11.16;100.00;100623.97;4994637;28;20073;-70
2021/11/08 08:04:56;;;;;;;201.45;57.00;;;;;;;11.24;100.00;100616.50;4999113;28;20037;-70
2021/11/08 08:07:22;;;;;;;204.45;58.92;;;;;;;11.34;100.00;100617.72;5034035;28;20031;-69
2021/11/08 08:09:47;;;;;;;180.27;58.03;;;;;;;11.33;100.00;100611.66;5034126;28;20101;-71
2021/11/08 08:12:13;;;;;;;169.85;64.70;;;;;;;11.15;100.00;100575.69;5034301;28;20087;-68
2021/11/08 08:14:38;;;;;;;421.10;246.40;;;;;;;11.39;100.00;100598.06;5034356;28;20101;-71
2021/11/08 08:17:04;;;;;;;205.13;67.30;;;;;;;11.45;100.00;100607.75;5030399;28;20037;-70
2021/11/08 08:19:31;;;;;;;242.82;78.10;;;;;;;11.19;100.00;100549.94;5033910;28;20087;-73
2021/11/08 08:21:57;;;;;;;238.88;69.90;;;;;;;11.55;100.00;100617.59;5033778;28;20479;-71
2021/11/08 08:24:22;;;;;;;225.43;66.22;;;;;;;11.57;100.00;100615.06;5034026;28;20101;-72
2021/11/08 08:26:48;;;;;;;218.27;70.38;;;;;;;11.68;100.00;100612.88;5014792;28;20049;-73
2021/11/08 08:29:14;;;;;;;185.02;58.42;;;;;;;11.70;100.00;100600.84;5033578;28;20555;-70
2021/11/08 08:31:43;;;;;;;183.95;62.83;;;;;;;11.61;100.00;100606.56;5033965;28;20037;-72
2021/11/08 08:34:10;;;;;;;225.32;67.15;;;;;;;11.57;100.00;100596.97;5013710;28;20037;-70
2021/11/08 08:36:36;;;;;;;210.25;65.50;;;;;;;11.58;100.00;100596.16;5033566;28;20385;-71
2021/11/08 08:39:04;;;;;;;209.95;65.57;;;;;;;11.65;100.00;100598.97;5032639;28;20055;-69
2021/11/08 08:41:29;;;;;;;174.75;57.40;;;;;;;11.61;100.00;100584.19;5033495;28;20376;-69
2021/11/08 08:43:55;;;;;;;163.40;60.28;;;;;;;11.49;100.00;100576.88;5033531;28;20028;-71
2021/11/08 08:46:21;;;;;;;169.68;59.00;;;;;;;11.22;100.00;100548.34;5033904;28;20022;-71
2021/11/08 08:48:47;;;;;;;167.82;60.85;;;;;;;11.59;100.00;100590.13;5033701;28;20040;-70
2021/11/08 08:51:13;;;;;;;174.68;59.72;;;;;;;11.63;100.00;100584.25;5016008;28;20029;-71
2021/11/08 08:53:38;;;;;;;173.18;59.17;;;;;;;11.71;100.00;100589.69;5033678;28;20063;-70
2021/11/08 08:56:04;;;;;;;174.80;61.13;;;;;;;11.81;100.00;100589.16;5033192;28;20045;-71
2021/11/08 08:58:31;;;;;;;160.63;60.05;;;;;;;11.93;100.00;100588.69;5033301;28;20034;-70
2021/11/08 09:00:58;;;;;;;157.35;57.60;;;;;;;11.90;100.00;100571.38;5016153;28;20455;-69
2021/11/08 09:03:24;;;;;;;162.15;57.15;;;;;;;11.90;100.00;100565.28;5031930;28;20034;-70
2021/11/08 09:05:49;;;;;;;161.80;57.15;;;;;;;12.05;100.00;100571.03;5033546;28;20099;-71
2021/11/08 09:08:16;;;;;;;144.00;50.20;;;;;;;11.88;100.00;100572.16;5033206;28;20033;-71
2021/11/08 09:10:42;;;;;;;164.93;57.58;;;;;;;11.80;100.00;100570.19;5033473;28;20026;-71
2021/11/08 09:13:08;;;;;;;149.75;59.05;;;;;;;11.84;100.00;100571.16;5033128;28;20029;-71
2021/11/08 09:15:36;;;;;;;150.32;55.83;;;;;;;11.44;100.00;100490.53;5014751;28;20454;-71
2021/11/08 09:18:03;;;;;;;145.45;56.97;;;;;;;11.94;100.00;100568.03;5033204;28;20033;-71
2021/11/08 09:20:29;;;;;;;150.60;57.83;;;;;;;11.98;100.00;100564.75;5033543;28;20022;-70
2021/11/08 09:22:55;;;;;;;155.27;60.30;;;;;;;12.07;100.00;100555.53;5033176;28;20048;-71
2021/11/08 09:25:22;;;;;;;138.75;57.78;;;;;;;11.65;100.00;100479.13;5033365;28;20030;-71
2021/11/08 09:27:50;;;;;;;145.45;57.55;;;;;;;12.18;100.00;100555.91;5032956;28;20050;-71
2021/11/08 09:30:20;;;;;;;170.60;59.58;;;;;;;12.17;100.00;100548.94;5032966;28;20024;-71
2021/11/08 09:32:46;;;;;;;175.18;61.83;;;;;;;12.26;100.00;100552.72;5032891;28;20040;-71
2021/11/08 09:35:12;;;;;;;161.93;62.45;;;;;;;12.21;100.00;100543.94;5032566;28;20021;-71
2021/11/08 09:37:45;;;;;;;155.20;60.03;;;;;;;12.24;100.00;100563.84;5032814;28;20084;-68
2021/11/08 09:40:22;;;;;;;156.13;60.08;;;;;;;11.61;100.00;100477.28;5032431;28;20032;-72
2021/11/08 09:42:52;;;;;;;153.65;58.90;;;;;;;12.22;100.00;100556.03;5032484;28;20025;-72
2021/11/08 09:45:17;;;;;;;163.63;58.88;;;;;;;12.26;100.00;100554.41;5015112;28;20412;-72
2021/11/08 09:47:44;;;;;;;150.98;58.63;;;;;;;12.14;100.00;100552.31;5032845;28;20091;-71
2021/11/08 09:50:13;;;;;;;141.63;55.90;;;;;;;12.16;100.00;100542.00;5032207;28;20041;-71
2021/11/08 09:52:42;;;;;;;143.77;57.93;;;;;;;12.03;100.00;100517.47;5032204;28;20033;-70
2021/11/08 09:55:11;;;;;;;138.10;58.08;;;;;;;12.29;100.00;100539.84;5032171;28;20029;-71
2021/11/08 09:57:37;;;;;;;141.00;57.35;;;;;;;12.38;100.00;100548.75;5032495;28;20125;-69
2021/11/08 10:00:37;;;;;;;130.43;56.78;;;;;;;12.45;100.00;100542.94;5032324;28;20026;-70
2021/11/08 10:03:13;;;;;;;122.68;55.75;;;;;;;12.51;100.00;100531.88;5031844;28;20105;-71
2021/11/08 10:05:43;;;;;;;138.65;59.55;;;;;;;12.60;100.00;100532.16;5032262;28;20060;-70
2021/11/08 10:08:10;;;;;;;118.18;53.95;;;;;;;12.55;100.00;100508.69;5032227;28;20040;-71
2021/11/08 10:10:36;;;;;;;122.57;60.95;;;;;;;12.69;100.00;100522.06;5032287;28;20028;-71
2021/11/08 10:13:14;;;;;;;126.30;54.00;;;;;;;12.71;100.00;100528.16;5031863;28;20034;-71
2021/11/08 10:15:48;;;;;;;116.75;52.03;;;;;;;12.73;100.00;100536.84;5031821;28;20026;-72
2021/11/08 10:18:15;;;;;;;100.70;47.60;;;;;;;12.77;100.00;100535.22;5014456;28;20064;-72
2021/11/08 10:20:45;;;;;;;97.72;49.15;;;;;;;12.75;100.00;100532.59;5031800;28;20025;-72
2021/11/08 10:23:13;;;;;;;88.05;45.67;;;;;;;12.30;100.00;100476.91;5031799;28;20048;-71
2021/11/08 10:25:41;;;;;;;102.35;48.53;;;;;;;12.69;100.00;100526.38;5031840;28;20472;-71
2021/11/08 10:28:13;;;;;;;98.43;47.85;;;;;;;12.45;100.00;100473.03;5031979;28;20056;-75
2021/11/08 10:30:39;;;;;;;100.65;49.03;;;;;;;12.57;100.00;100467.31;5032192;28;20032;-71
2021/11/08 10:33:18;;;;;;;95.68;48.75;;;;;;;12.92;100.00;100517.53;5030640;28;20030;-72
2021/11/08 10:35:52;;;;;;;84.65;45.08;;;;;;;12.89;100.00;100507.06;5031933;28;20034;-72
2021/11/08 10:38:27;;;;;;;91.63;47.00;;;;;;;12.81;100.00;100503.41;5031649;28;20030;-73
2021/11/08 10:40:59;;;;;;;82.55;44.58;;;;;;;12.84;100.00;100500.03;5031571;28;20498;-71
2021/11/08 10:43:30;;;;;;;80.47;45.17;;;;;;;12.79;100.00;100492.97;5031536;28;20037;-72
2021/11/08 10:46:02;;;;;;;73.10;39.63;;;;;;;12.74;100.00;100493.69;5031600;28;20032;-72
2021/11/08 10:48:32;;;;;;;83.00;47.67;;;;;;;12.57;100.00;100480.25;5031664;28;20032;-72
2021/11/08 10:50:58;;;;;;;;;;;;;;;12.77;100.00;100484.31;5031742;28;20483;-70
2021/11/08 10:53:25;;;;;;;73.80;42.28;;;;;;;12.70;100.00;100476.31;5031652;28;19920;-69
2021/11/08 10:55:56;;;;;;;76.07;41.17;;;;;;;12.66;100.00;100477.03;5031352;28;20050;-69
2021/11/08 10:58:23;;;;;;;77.13;44.47;;;;;;;12.76;100.00;100479.06;5031283;28;20033;-68
2021/11/08 11:00:54;;;;;;;73.07;44.20;;;;;;;12.85;100.00;100475.88;5031341;28;20032;-69
2021/11/08 11:03:21;;;;;;;72.32;41.33;;;;;;;12.96;100.00;100477.03;5031043;28;20052;-70
2021/11/08 11:05:58;;;;;;;70.97;43.65;;;;;;;12.99;100.00;100471.06;5031120;28;20048;-69
2021/11/08 11:08:24;;;;;;;75.75;44.47;;;;;;;13.11;100.00;100474.00;5028959;28;20442;-69
2021/11/08 11:11:01;;;;;;;69.75;42.25;;;;;;;13.05;100.00;100453.09;5030388;28;20018;-69
2021/11/08 11:13:29;;;;;;;62.55;40.17;;;;;;;13.10;100.00;100473.09;5012496;28;20489;-69
2021/11/08 11:16:00;;;;;;;52.67;36.42;;;;;;;12.76;100.00;100409.13;5030567;28;20503;-69
2021/11/08 11:18:31;;;;;;;59.75;37.20;;;;;;;12.86;100.00;100412.81;5028199;28;20082;-69
2021/11/08 11:20:58;;;;;;;55.88;36.40;;;;;;;13.21;100.00;100469.94;5030432;28;20078;-72
2021/11/08 11:23:27;;;;;;;51.40;33.70;;;;;;;13.17;100.00;100468.97;5030641;28;20061;-68
2021/11/08 11:26:08;;;;;;;59.03;35.97;;;;;;;13.05;100.00;100463.47;5030295;28;20021;-69
2021/11/08 11:28:37;;;;;;;59.15;38.40;;;;;;;13.14;100.00;100460.22;5032910;28;20045;-69
2021/11/08 11:31:19;;;;;;;57.00;38.33;;;;;;;13.16;100.00;100440.38;4999615;28;20423;-66
2021/11/08 11:33:45;;;;;;;57.65;37.92;;;;;;;13.41;100.00;100460.09;5034385;28;20322;-68
2021/11/08 11:36:15;;;;;;;57.95;38.58;;;;;;;13.35;100.00;100440.03;5034546;28;20022;-66
2021/11/08 11:38:50;;;;;;;58.17;38.67;;;;;;;13.48;100.00;100446.41;5034511;28;20028;-69
2021/11/08 11:41:22;;;;;;;64.18;40.15;;;;;;;13.36;100.00;100421.03;5033078;28;20080;-69
2021/11/08 11:43:55;;;;;;;60.50;39.42;;;;;;;13.55;100.00;100448.31;5025245;28;20467;-68
2021/11/08 11:46:28;;;;;;;55.17;37.58;;;;;;;13.52;100.00;100443.09;5025663;28;20026;-68
2021/11/08 11:48:55;;;;;;;61.20;40.38;;;;;;;13.55;100.00;100430.16;5033019;28;20045;-69
2021/11/08 11:51:25;;;;;;;59.83;40.55;;;;;;;13.52;100.00;100429.22;5032835;28;20061;-69
2021/11/08 11:53:50;;;;;;;;;;;;;;;13.61;100.00;100433.75;5033318;28;20505;-67
2021/11/08 11:56:18;;;;;;;57.67;38.33;;;;;;;13.63;100.00;100432.94;5033788;28;20003;-69
2021/11/08 11:58:44;;;;;;;68.68;42.75;;;;;;;13.71;100.00;100441.78;4990867;28;20491;-69
2021/11/08 12:01:12;;;;;;;60.15;40.17;;;;;;;13.69;100.00;100438.28;5034249;28;20071;-69
2021/11/08 12:03:39;;;;;;;62.78;42.55;;;;;;;13.75;100.00;100430.63;5033491;28;20029;-70
2021/11/08 12:06:05;;;;;;;56.85;38.92;;;;;;;13.80;100.00;100433.34;5033860;28;20369;-70
2021/11/08 12:08:38;;;;;;;59.00;41.22;;;;;;;13.82;100.00;100436.88;5034191;28;20032;-70
2021/11/08 12:11:07;;;;;;;58.53;39.53;;;;;;;13.70;100.00;100424.47;5034119;28;20055;-69
2021/11/08 12:13:39;;;;;;;;;;;;;;;13.64;100.00;100426.91;5016892;28;20120;-69
2021/11/08 12:16:18;;;;;;;55.55;38.63;;;;;;;13.70;100.00;100432.25;5034014;28;19983;-70
2021/11/08 12:18:46;;;;;;;58.80;40.95;;;;;;;13.66;100.00;100430.44;5031833;28;20033;-71
2021/11/08 12:21:35;;;;;;;62.15;41.67;;;;;;;13.72;100.00;100425.41;5033651;28;20044;-71
2021/11/08 12:24:13;;;;;;;76.03;49.73;;;;;;;13.71;100.00;100428.81;5032723;28;20034;-69
2021/11/08 12:26:40;;;;;;;58.63;40.90;;;;;;;13.71;100.00;100430.56;5032414;28;20279;-69
2021/11/08 12:29:13;;;;;;;62.35;43.53;;;;;;;13.70;100.00;100427.06;5015469;28;20045;-69
2021/11/08 12:31:39;;;;;;;58.65;40.42;;;;;;;13.57;100.00;100414.63;5033531;28;20445;-68
2021/11/08 12:34:06;;;;;;;54.80;39.22;;;;;;;13.66;100.00;100427.84;5034416;28;20420;-69
2021/11/08 12:36:32;;;;;;;57.38;39.42;;;;;;;13.46;100.00;100429.97;5031784;28;20025;-69
2021/11/08 12:39:26;;;;;;;60.35;40.22;;;;;;;13.02;100.00;100345.03;5031303;28;20025;-69
2021/11/08 12:41:56;;;;;;;61.45;41.50;;;;;;;13.42;100.00;100402.19;5010993;28;20065;-70
2021/11/08 12:44:31;;;;;;;57.60;38.10;;;;;;;13.51;100.00;100407.59;5010714;28;20042;-68
2021/11/08 12:47:00;;;;;;;58.03;41.17;;;;;;;13.51;100.00;100399.81;5007775;28;20416;-73
2021/11/08 12:49:33;;;;;;;57.92;40.00;;;;;;;13.62;100.00;100406.97;5010316;28;20440;-69
2021/11/08 12:52:14;;;;;;;62.80;40.03;;;;;;;13.56;100.00;100407.72;5009014;28;20049;-72
2021/11/08 12:55:02;;;;;;;58.67;39.25;;;;;;;13.54;100.00;100405.06;5009626;28;20442;-72
2021/11/08 12:57:29;;;;;;;55.20;38.53;;;;;;;13.49;100.00;100404.09;5009341;28;20044;-70